Time;durP1;ratioP1;P1;durP2;ratioP2;P2;SDS_P1;SDS_P2;PMS_P1;PMS_P2;Temp;Humidity;BMP_temperature;BMP_pressure;BME280_temperature;BME280_humidity;BME280_pressure;Samples;Min_cycle;Max_cycle;Signal;HPM_P1;HPM_P2
2022/05/05 00:02:04;;;;;;;7.07;3.35;;;10.90;99.90;;;;;;4922705;29;20202;-76
2022/05/05 00:04:30;;;;;;;9.52;3.00;;;10.90;99.90;;;;;;4936990;29;20684;-76
2022/05/05 00:06:55;;;;;;;9.77;3.42;;;10.90;99.90;;;;;;4936945;29;20181;-76
2022/05/05 00:09:21;;;;;;;7.35;3.25;;;10.80;99.90;;;;;;4937108;29;20186;-75
2022/05/05 00:14:31;;;;;;;8.75;2.85;;;10.80;99.90;;;;;;4940616;29;20653;-76
2022/05/05 00:17:04;;;;;;;8.68;2.90;;;10.80;99.90;;;;;;4939049;29;20265;-76
2022/05/05 00:19:32;;;;;;;6.43;2.80;;;10.80;99.90;;;;;;4940652;29;20680;-76
2022/05/05 00:21:59;;;;;;;8.63;3.13;;;10.80;99.90;;;;;;4940707;29;20688;-76
2022/05/05 00:24:24;;;;;;;7.40;2.78;;;10.80;99.90;;;;;;4940601;29;20174;-76
2022/05/05 00:26:50;;;;;;;9.52;3.13;;;10.80;99.90;;;;;;4940291;29;20509;-76
2022/05/05 00:29:16;;;;;;;7.75;3.13;;;10.80;99.90;;;;;;4940236;29;20174;-76
2022/05/05 00:31:43;;;;;;;6.05;2.58;;;10.80;99.90;;;;;;4940186;29;20186;-76
2022/05/05 00:34:09;;;;;;;8.43;2.90;;;10.80;99.90;;;;;;4940408;29;20224;-75
2022/05/05 00:36:35;;;;;;;6.47;2.40;;;10.80;99.90;;;;;;4940100;29;20244;-76
2022/05/05 00:39:00;;;;;;;7.07;2.55;;;10.80;99.90;;;;;;4939185;29;20204;-76
2022/05/05 00:41:26;;;;;;;10.57;2.70;;;10.80;99.90;;;;;;4940088;29;20269;-76
2022/05/05 00:43:52;;;;;;;5.68;2.50;;;10.80;99.90;;;;;;4940277;29;20182;-76
2022/05/05 00:46:18;;;;;;;9.50;2.70;;;10.80;99.90;;;;;;4940121;29;20567;-76
2022/05/05 00:48:44;;;;;;;10.38;2.78;;;10.80;99.90;;;;;;4939981;29;20197;-75
2022/05/05 00:51:10;;;;;;;7.72;2.80;;;10.70;99.90;;;;;;4940064;29;20210;-76
2022/05/05 00:53:36;;;;;;;6.28;2.67;;;10.70;99.90;;;;;;4940154;29;20186;-76
2022/05/05 00:56:14;;;;;;;10.27;3.08;;;10.60;99.90;;;;;;4939494;29;20309;-76
2022/05/05 00:58:42;;;;;;;5.53;2.63;;;10.60;99.90;;;;;;4939814;29;20182;-75
2022/05/05 01:01:08;;;;;;;9.70;3.05;;;10.60;99.90;;;;;;4939756;29;20625;-75
2022/05/05 01:03:36;;;;;;;12.90;3.00;;;10.70;99.90;;;;;;4939461;29;20516;-76
2022/05/05 01:06:03;;;;;;;11.32;2.72;;;10.70;99.90;;;;;;4939760;29;20610;-75
2022/05/05 01:08:29;;;;;;;7.95;3.28;;;10.60;99.90;;;;;;4939492;29;20186;-76
2022/05/05 01:10:55;;;;;;;5.13;2.92;;;10.60;99.90;;;;;;4939749;29;20665;-76
2022/05/05 01:13:21;;;;;;;10.13;2.88;;;10.50;99.90;;;;;;4939770;29;20613;-76
2022/05/05 01:15:47;;;;;;;5.80;2.92;;;10.50;99.90;;;;;;4939658;29;20225;-76
2022/05/05 01:18:12;;;;;;;3.92;2.25;;;10.60;99.90;;;;;;4939644;29;20186;-76
2022/05/05 01:20:47;;;;;;;5.55;2.70;;;10.60;99.90;;;;;;4939888;29;20222;-75
2022/05/05 01:23:13;;;;;;;10.40;3.33;;;10.60;99.90;;;;;;4938894;29;20606;-76
2022/05/05 01:28:24;;;;;;;8.80;3.03;;;10.50;99.90;;;;;;4939438;29;20172;-75
2022/05/05 01:30:50;;;;;;;7.38;3.13;;;10.50;99.90;;;;;;4939417;29;20178;-76
2022/05/05 01:33:16;;;;;;;9.68;2.92;;;10.50;99.90;;;;;;4939060;29;20277;-76
2022/05/05 01:35:43;;;;;;;5.05;2.72;;;10.50;99.90;;;;;;4938845;29;20213;-76
2022/05/05 01:38:14;;;;;;;8.10;2.88;;;10.50;99.90;;;;;;4938980;29;20185;-76
2022/05/05 01:40:41;;;;;;;8.32;2.42;;;10.40;99.90;;;;;;4939303;29;20185;-76
2022/05/05 01:43:07;;;;;;;8.27;2.97;;;10.40;99.90;;;;;;4939132;29;20181;-76
2022/05/05 01:45:34;;;;;;;5.07;2.55;;;10.40;99.90;;;;;;4939308;29;20190;-76
2022/05/05 01:48:00;;;;;;;10.65;3.13;;;10.40;99.90;;;;;;4938904;29;20190;-76
2022/05/05 01:50:26;;;;;;;6.97;2.88;;;10.30;99.90;;;;;;4938887;29;20244;-76
2022/05/05 01:52:53;;;;;;;12.27;3.33;;;10.30;99.90;;;;;;4938915;29;20253;-76
2022/05/05 01:55:20;;;;;;;8.38;2.83;;;10.40;99.90;;;;;;4937553;29;20580;-75
2022/05/05 01:57:46;;;;;;;5.40;2.60;;;10.30;99.90;;;;;;4938893;29;20178;-76
2022/05/05 02:00:12;;;;;;;7.10;3.15;;;10.30;99.90;;;;;;4939069;29;20185;-76
2022/05/05 02:02:38;;;;;;;9.37;2.70;;;10.20;99.90;;;;;;4938561;29;20186;-75
2022/05/05 02:05:04;;;;;;;8.98;2.67;;;10.30;99.90;;;;;;4938689;29;20184;-76
2022/05/05 02:07:29;;;;;;;6.70;2.60;;;10.20;99.90;;;;;;4938729;29;20648;-75
2022/05/05 02:09:55;;;;;;;11.57;2.65;;;10.20;99.90;;;;;;4938633;29;20186;-76
2022/05/05 02:12:21;;;;;;;6.50;2.35;;;10.20;99.90;;;;;;4938943;29;20174;-76
2022/05/05 02:14:46;;;;;;;8.80;2.60;;;10.10;99.90;;;;;;5351436;23;20545;-75
2022/05/05 02:17:12;;;;;;;7.97;2.72;;;10.10;99.90;;;;;;4919164;29;20190;-75
2022/05/05 02:19:39;;;;;;;6.17;2.60;;;10.10;99.90;;;;;;4919281;29;20238;-75
2022/05/05 02:22:05;;;;;;;6.93;2.83;;;10.10;99.90;;;;;;4919453;29;20234;-75
2022/05/05 02:24:31;;;;;;;5.63;2.53;;;10.00;99.90;;;;;;4919301;29;20194;-75
2022/05/05 02:26:56;;;;;;;10.27;2.60;;;10.00;99.90;;;;;;4919572;29;20179;-76
2022/05/05 02:29:22;;;;;;;6.17;2.67;;;9.90;99.90;;;;;;4952503;29;20232;-75
2022/05/05 02:31:48;;;;;;;13.13;2.70;;;9.80;99.90;;;;;;4952621;29;20197;-75
2022/05/05 02:34:13;;;;;;;5.50;2.67;;;9.90;99.90;;;;;;4937235;29;20189;-75
2022/05/05 02:39:23;;;;;;;5.93;2.73;;;9.90;99.90;;;;;;4938417;29;20184;-75
2022/05/05 02:41:49;;;;;;;7.77;2.80;;;10.00;99.90;;;;;;4938149;29;20609;-77
2022/05/05 02:44:14;;;;;;;8.33;3.00;;;9.90;99.90;;;;;;4937794;29;20181;-75
2022/05/05 02:46:40;;;;;;;6.47;2.72;;;9.90;99.90;;;;;;4937902;29;20174;-76
2022/05/05 02:49:06;;;;;;;7.00;3.17;;;9.90;99.90;;;;;;4937884;29;20174;-76
2022/05/05 02:51:31;;;;;;;5.60;3.05;;;9.80;99.90;;;;;;4937714;29;20185;-75
2022/05/05 02:56:41;;;;;;;9.97;3.20;;;9.60;99.90;;;;;;4937974;29;20229;-76
2022/05/05 02:59:07;;;;;;;7.50;2.80;;;9.50;99.90;;;;;;4937711;29;20166;-75
2022/05/05 03:01:34;;;;;;;7.93;3.20;;;9.40;99.90;;;;;;4937422;29;20193;-75
2022/05/05 03:03:59;;;;;;;7.27;2.93;;;9.30;99.90;;;;;;4937491;29;20170;-76
2022/05/05 03:06:25;;;;;;;5.97;2.70;;;9.40;99.90;;;;;;4937771;29;20314;-75
2022/05/05 03:08:52;;;;;;;6.77;2.60;;;9.30;99.90;;;;;;4937618;29;20202;-75
2022/05/05 03:11:17;;;;;;;6.70;2.90;;;9.30;99.90;;;;;;4937637;29;20613;-76
2022/05/05 03:13:43;;;;;;;6.63;2.87;;;9.30;99.90;;;;;;4937624;29;20237;-75
2022/05/05 03:16:09;;;;;;;8.87;3.37;;;9.30;99.90;;;;;;4937009;29;20272;-75
2022/05/05 03:18:34;;;;;;;8.33;3.00;;;9.30;99.90;;;;;;4945448;29;20248;-75
2022/05/05 03:21:00;;;;;;;7.40;3.13;;;9.20;99.90;;;;;;4956881;28;20181;-75
2022/05/05 03:23:26;;;;;;;7.03;3.00;;;9.20;99.90;;;;;;4956358;28;20261;-76
2022/05/05 03:25:51;;;;;;;6.10;3.10;;;9.20;99.90;;;;;;4956604;29;20189;-76
2022/05/05 03:28:17;;;;;;;9.90;3.33;;;9.20;99.90;;;;;;4956311;29;20180;-76
2022/05/05 03:30:43;;;;;;;5.63;2.67;;;9.00;99.90;;;;;;4956355;29;20169;-76
2022/05/05 03:33:08;;;;;;;6.93;3.03;;;9.00;99.90;;;;;;4941086;29;20174;-76
2022/05/05 03:35:34;;;;;;;5.97;2.97;;;9.00;99.90;;;;;;4936207;29;20220;-76
2022/05/05 03:38:00;;;;;;;8.67;3.73;;;9.00;99.90;;;;;;4937114;29;20174;-77
2022/05/05 03:40:25;;;;;;;6.30;3.13;;;8.90;99.90;;;;;;4937438;29;20628;-76
2022/05/05 03:42:51;;;;;;;5.60;3.17;;;8.80;99.90;;;;;;4936992;29;20617;-76
2022/05/05 03:45:17;;;;;;;5.70;3.10;;;8.80;99.90;;;;;;4937368;29;20189;-75
2022/05/05 03:47:43;;;;;;;8.13;3.03;;;8.80;99.90;;;;;;4936800;29;20178;-76
2022/05/05 03:50:09;;;;;;;6.23;3.30;;;8.70;99.90;;;;;;4937210;29;20302;-76
2022/05/05 03:52:35;;;;;;;6.90;3.57;;;8.70;99.90;;;;;;4935723;29;20193;-76
2022/05/05 03:55:00;;;;;;;6.37;3.13;;;8.80;99.90;;;;;;4937093;29;20210;-75
2022/05/05 03:57:26;;;;;;;6.27;3.17;;;8.80;99.90;;;;;;4935632;29;20269;-75
2022/05/05 03:59:52;;;;;;;8.50;3.13;;;8.80;99.90;;;;;;4937044;29;20184;-76
2022/05/05 04:02:17;;;;;;;8.40;3.43;;;8.70;99.90;;;;;;4936680;29;20178;-75
2022/05/05 04:04:43;;;;;;;6.97;3.57;;;8.70;99.90;;;;;;4936967;29;20209;-76
2022/05/05 04:07:09;;;;;;;6.53;3.20;;;8.60;99.90;;;;;;4937053;29;20177;-75
2022/05/05 04:09:34;;;;;;;7.40;3.10;;;8.50;99.90;;;;;;4937244;29;20174;-75
2022/05/05 04:12:00;;;;;;;7.90;3.00;;;8.40;99.90;;;;;;4936704;29;20170;-75
2022/05/05 04:14:26;;;;;;;4.67;3.00;;;8.50;99.90;;;;;;4936967;29;20189;-76
2022/05/05 04:16:51;;;;;;;7.70;3.43;;;8.40;99.90;;;;;;4936656;29;20280;-75
2022/05/05 04:19:17;;;;;;;6.20;3.10;;;8.40;99.90;;;;;;4936845;29;20271;-76
2022/05/05 04:21:43;;;;;;;8.07;3.20;;;8.30;99.90;;;;;;4935764;29;20182;-76
2022/05/05 04:24:08;;;;;;;8.13;3.67;;;8.30;99.90;;;;;;4937192;29;20213;-76
2022/05/05 04:26:34;;;;;;;5.53;3.07;;;8.20;99.90;;;;;;4936979;29;20609;-76
2022/05/05 04:29:01;;;;;;;8.00;3.00;;;8.20;99.90;;;;;;4936580;29;20258;-75
2022/05/05 04:31:30;;;;;;;5.40;2.80;;;8.20;99.90;;;;;;4946869;29;20188;-76
2022/05/05 04:33:55;;;;;;;4.17;2.83;;;8.40;99.90;;;;;;4936331;29;20185;-76
2022/05/05 04:36:21;;;;;;;5.97;3.17;;;8.40;99.90;;;;;;4935684;29;20222;-76
2022/05/05 04:38:47;;;;;;;18.57;3.40;;;8.40;99.90;;;;;;4936506;29;20635;-75
2022/05/05 04:41:13;;;;;;;8.40;3.17;;;8.40;99.90;;;;;;4936392;29;20170;-76
2022/05/05 04:43:38;;;;;;;7.07;3.47;;;8.30;99.90;;;;;;4936452;29;20577;-76
2022/05/05 04:46:04;;;;;;;6.77;3.33;;;8.40;99.90;;;;;;4936852;29;20624;-76
2022/05/05 04:48:30;;;;;;;8.33;3.70;;;8.40;99.90;;;;;;4936043;29;20182;-76
2022/05/05 04:50:56;;;;;;;7.57;3.20;;;8.50;99.90;;;;;;4936681;29;20590;-76
2022/05/05 04:53:22;;;;;;;4.13;2.90;;;8.60;99.90;;;;;;4936299;29;20190;-76
2022/05/05 04:55:47;;;;;;;12.83;3.40;;;8.70;99.90;;;;;;4936545;29;20220;-76
2022/05/05 04:58:13;;;;;;;8.73;3.47;;;8.70;99.90;;;;;;4937772;29;20186;-76
2022/05/05 05:00:39;;;;;;;6.90;3.00;;;8.80;99.90;;;;;;4940051;29;20181;-75
2022/05/05 05:03:32;;;;;;;10.77;3.23;;;8.90;99.90;;;;;;4939734;29;20201;-76
2022/05/05 05:05:51;;;;;;;11.83;3.60;;;9.00;99.90;;;;;;4939425;29;20182;-75
2022/05/05 05:08:16;;;;;;;10.20;3.20;;;9.00;99.90;;;;;;4939478;29;20182;-76
2022/05/05 05:10:43;;;;;;;8.37;3.33;;;9.00;99.90;;;;;;4939525;29;20225;-76
2022/05/05 05:13:09;;;;;;;10.00;3.93;;;9.20;99.90;;;;;;4939666;29;20193;-76
2022/05/05 05:15:34;;;;;;;9.27;3.20;;;9.10;99.90;;;;;;4939315;29;20676;-76
2022/05/05 05:18:00;;;;;;;6.70;3.30;;;9.20;99.90;;;;;;4939228;29;20178;-76
2022/05/05 05:20:26;;;;;;;10.50;3.80;;;9.20;99.90;;;;;;4939590;29;20170;-76
2022/05/05 05:22:51;;;;;;;5.87;2.90;;;9.20;99.90;;;;;;4939220;29;20196;-75
2022/05/05 05:25:17;;;;;;;8.03;3.40;;;9.30;99.90;;;;;;4929748;29;20278;-76
2022/05/05 05:27:43;;;;;;;11.87;3.80;;;9.30;99.90;;;;;;4920459;29;20218;-75
2022/05/05 05:30:09;;;;;;;8.37;3.57;;;9.30;99.90;;;;;;4920314;29;20219;-76
2022/05/05 05:32:34;;;;;;;8.93;3.20;;;9.30;99.90;;;;;;4929212;29;20190;-76
2022/05/05 05:35:00;;;;;;;10.37;3.73;;;9.40;99.90;;;;;;4939135;29;20700;-76
2022/05/05 05:37:26;;;;;;;9.40;3.77;;;9.50;99.90;;;;;;4943507;29;20189;-76
2022/05/05 05:39:51;;;;;;;12.47;3.70;;;9.50;99.90;;;;;;4942514;29;20349;-75
2022/05/05 05:42:17;;;;;;;8.27;3.00;;;9.50;99.90;;;;;;4935786;29;20541;-75
2022/05/05 05:44:43;;;;;;;8.10;3.60;;;9.60;99.90;;;;;;4939090;29;20186;-76
2022/05/05 05:47:10;;;;;;;9.20;3.33;;;9.60;99.90;;;;;;4938886;29;20204;-76
2022/05/05 05:49:36;;;;;;;11.50;4.63;;;9.60;99.90;;;;;;4957086;29;20185;-76
2022/05/05 05:52:02;;;;;;;5.87;2.93;;;9.60;99.90;;;;;;4944611;29;20194;-76
2022/05/05 05:54:28;;;;;;;8.63;3.37;;;9.60;99.90;;;;;;4948428;29;20184;-76
2022/05/05 05:56:53;;;;;;;5.57;3.30;;;9.50;99.90;;;;;;4947597;29;20213;-76
2022/05/05 05:59:19;;;;;;;6.60;3.37;;;9.50;99.90;;;;;;4955663;29;20217;-76
2022/05/05 06:04:29;;;;;;;8.53;3.37;;;9.50;99.90;;;;;;4938089;29;20240;-76
2022/05/05 06:06:55;;;;;;;7.17;3.40;;;9.50;99.90;;;;;;4938529;29;20211;-76
2022/05/05 06:09:21;;;;;;;10.37;3.60;;;9.50;99.90;;;;;;4937424;29;20177;-76
2022/05/05 06:11:47;;;;;;;10.17;3.67;;;9.60;99.90;;;;;;4938236;29;20695;-76
2022/05/05 06:14:13;;;;;;;7.00;3.73;;;9.60;99.90;;;;;;4937461;29;20185;-76
2022/05/05 06:16:38;;;;;;;7.27;3.90;;;9.60;99.90;;;;;;4956374;29;20568;-76
2022/05/05 06:19:04;;;;;;;10.73;3.90;;;9.60;99.90;;;;;;4947035;29;20192;-76
2022/05/05 06:21:29;;;;;;;10.50;3.93;;;9.60;99.90;;;;;;4938208;29;20185;-77
2022/05/05 06:23:55;;;;;;;8.50;3.43;;;9.60;99.90;;;;;;4946095;29;20173;-76
2022/05/05 06:26:23;;;;;;;9.03;3.47;;;9.70;99.90;;;;;;4956919;29;20199;-76
2022/05/05 06:28:49;;;;;;;12.10;3.40;;;9.80;99.90;;;;;;4956074;29;20181;-76
2022/05/05 06:31:16;;;;;;;7.53;3.07;;;9.90;99.90;;;;;;4957515;28;20157;-76
2022/05/05 06:33:43;;;;;;;8.00;3.70;;;10.00;99.90;;;;;;4934720;29;20194;-77
2022/05/05 06:36:09;;;;;;;6.40;2.87;;;10.10;99.90;;;;;;4936732;29;20552;-76
2022/05/05 06:38:35;;;;;;;7.63;3.13;;;10.20;99.90;;;;;;4936776;29;20181;-76
2022/05/05 06:41:01;;;;;;;7.07;3.13;;;10.30;99.90;;;;;;4937352;29;20713;-76
2022/05/05 06:43:27;;;;;;;8.13;2.80;;;10.50;99.90;;;;;;4935456;29;20298;-77
2022/05/05 06:45:53;;;;;;;7.57;2.93;;;10.50;99.90;;;;;;4937808;29;20185;-76
2022/05/05 06:48:19;;;;;;;12.70;3.37;;;10.60;99.90;;;;;;4937334;29;20260;-76
2022/05/05 06:50:45;;;;;;;11.73;3.10;;;10.70;99.90;;;;;;4938052;29;20692;-76
2022/05/05 06:53:10;;;;;;;9.83;2.93;;;10.80;99.90;;;;;;4935884;29;20543;-76
2022/05/05 06:55:36;;;;;;;9.57;3.40;;;10.80;99.90;;;;;;4936443;29;20296;-76
2022/05/05 06:58:01;;;;;;;5.97;2.83;;;10.90;99.90;;;;;;4936318;29;20280;-77
2022/05/05 07:03:13;;;;;;;7.57;2.97;;;11.20;99.90;;;;;;4916952;29;20639;-76
2022/05/05 07:05:39;;;;;;;10.30;3.17;;;11.30;99.90;;;;;;4937850;29;20182;-77
2022/05/05 07:08:04;;;;;;;7.25;2.40;;;11.30;99.90;;;;;;4937452;29;20620;-76
2022/05/05 07:13:14;;;;;;;8.97;2.80;;;11.50;99.90;;;;;;4936349;29;20281;-76
2022/05/05 07:15:40;;;;;;;9.77;3.30;;;11.60;99.90;;;;;;4936881;29;20264;-77
2022/05/05 07:18:06;;;;;;;11.27;3.08;;;11.70;99.90;;;;;;4935891;29;20181;-76
2022/05/05 07:20:32;;;;;;;9.13;3.15;;;11.80;99.90;;;;;;4937184;29;20197;-76
2022/05/05 07:22:58;;;;;;;10.20;2.92;;;11.80;99.90;;;;;;4937240;29;20170;-77
2022/05/05 07:25:25;;;;;;;10.63;2.67;;;12.00;99.90;;;;;;4937146;29;20178;-77
2022/05/05 07:27:50;;;;;;;6.75;2.60;;;12.00;99.90;;;;;;4935793;29;20555;-77
2022/05/05 07:30:16;;;;;;;11.00;2.75;;;12.10;99.90;;;;;;4936985;29;20669;-77
2022/05/05 07:32:42;;;;;;;4.93;2.80;;;12.20;99.90;;;;;;4936887;29;20268;-77
2022/05/05 07:35:09;;;;;;;8.02;3.10;;;12.40;99.90;;;;;;4937136;29;20198;-77
2022/05/05 07:37:36;;;;;;;9.32;2.80;;;12.50;99.90;;;;;;4937220;29;20268;-78
2022/05/05 07:40:03;;;;;;;9.75;2.28;;;12.60;99.60;;;;;;4935685;29;20213;-77
2022/05/05 07:42:29;;;;;;;7.10;2.83;;;12.70;98.20;;;;;;4936292;29;20296;-77
2022/05/05 07:44:54;;;;;;;9.23;2.70;;;12.80;97.80;;;;;;4937052;29;20671;-77
2022/05/05 07:47:20;;;;;;;9.25;2.53;;;12.80;97.60;;;;;;4936874;29;20265;-76
2022/05/05 07:49:45;;;;;;;7.18;2.22;;;12.90;98.90;;;;;;4930198;29;20191;-77
2022/05/05 07:52:11;;;;;;;10.02;2.72;;;13.00;98.30;;;;;;4936961;29;20166;-77
2022/05/05 07:54:43;;;;;;;6.35;2.78;;;13.10;97.40;;;;;;4935301;29;20177;-77
2022/05/05 07:57:16;;;;;;;5.97;2.30;;;13.10;97.40;;;;;;4916415;29;20246;-77
2022/05/05 07:59:44;;;;;;;6.03;2.67;;;13.30;98.30;;;;;;4916864;29;20267;-77
2022/05/05 08:02:13;;;;;;;7.70;2.70;;;13.30;96.90;;;;;;4930901;29;20217;-79
2022/05/05 08:04:43;;;;;;;8.20;2.67;;;13.40;96.50;;;;;;4934742;29;20232;-78
2022/05/05 08:07:08;;;;;;;8.02;2.38;;;13.50;97.10;;;;;;4935462;29;20233;-79
2022/05/05 08:09:34;;;;;;;4.90;2.17;;;13.60;97.20;;;;;;4922526;29;20190;-78
2022/05/05 08:12:00;;;;;;;5.50;2.55;;;13.70;95.90;;;;;;4917732;29;20226;-78
2022/05/05 08:14:27;;;;;;;9.35;2.50;;;13.80;95.90;;;;;;4935563;29;20182;-80
2022/05/05 08:16:53;;;;;;;5.75;2.53;;;13.90;94.30;;;;;;4936209;29;20706;-77
2022/05/05 08:19:20;;;;;;;6.40;2.63;;;13.90;94.40;;;;;;4936276;29;20644;-79
2022/05/05 08:21:46;;;;;;;5.38;2.40;;;13.70;93.90;;;;;;4918720;29;20182;-77
2022/05/05 08:29:40;;;;;;;7.65;2.33;;;14.10;94.10;;;;;;4917877;29;20657;-80
2022/05/05 08:32:06;;;;;;;7.05;2.80;;;14.20;93.90;;;;;;4924150;29;20190;-77
2022/05/05 08:34:32;;;;;;;4.63;2.03;;;14.30;93.50;;;;;;4939348;29;20301;-76
2022/05/05 08:36:57;;;;;;;6.13;2.08;;;14.50;90.20;;;;;;4940063;29;20334;-77
2022/05/05 08:39:23;;;;;;;7.60;2.80;;;14.50;92.20;;;;;;4939075;29;20182;-77
2022/05/05 08:41:48;;;;;;;6.95;2.08;;;14.50;94.40;;;;;;4939809;29;20182;-78
2022/05/05 08:44:14;;;;;;;5.68;2.45;;;14.70;93.50;;;;;;4939985;29;20692;-77
2022/05/05 08:46:40;;;;;;;7.82;2.30;;;14.80;93.40;;;;;;4939869;29;20225;-78
2022/05/05 08:49:08;;;;;;;12.45;2.30;;;14.80;94.00;;;;;;4939607;29;20206;-78
2022/05/05 08:51:44;;;;;;;6.63;2.30;;;14.80;94.30;;;;;;4926195;29;20186;-78
2022/05/05 08:54:16;;;;;;;4.80;2.30;;;14.90;92.70;;;;;;4927591;29;20262;-80
2022/05/05 08:56:42;;;;;;;7.75;2.20;;;15.10;91.00;;;;;;4938532;29;20213;-79
2022/05/05 08:59:09;;;;;;;9.43;2.67;;;15.10;92.60;;;;;;4939358;29;20196;-77
2022/05/05 09:01:38;;;;;;;6.30;2.95;;;15.10;93.10;;;;;;4938303;29;20184;-78
2022/05/05 09:04:08;;;;;;;5.93;2.50;;;15.10;93.80;;;;;;4938633;29;20178;-79
2022/05/05 09:06:51;;;;;;;7.53;2.20;;;15.10;94.20;;;;;;4940032;29;20182;-78
2022/05/05 09:09:28;;;;;;;7.13;2.05;;;15.40;92.80;;;;;;4939666;29;20174;-79
2022/05/05 09:12:13;;;;;;;6.55;2.40;;;15.60;90.40;;;;;;4938189;29;20526;-78
2022/05/05 09:14:59;;;;;;;5.45;2.17;;;15.80;89.60;;;;;;4923142;29;20213;-78
2022/05/05 09:17:29;;;;;;;9.27;2.40;;;15.90;89.70;;;;;;4920221;29;20202;-78
2022/05/05 09:19:56;;;;;;;10.13;2.40;;;15.80;92.30;;;;;;4920599;29;20182;-78
2022/05/05 09:22:26;;;;;;;4.25;1.83;;;15.90;85.00;;;;;;4920012;29;20692;-77
2022/05/05 09:24:56;;;;;;;4.95;1.63;;;15.80;82.90;;;;;;4919296;29;20182;-78
2022/05/05 09:27:31;;;;;;;6.35;1.80;;;15.70;79.10;;;;;;4937471;29;20284;-77
2022/05/05 09:30:05;;;;;;;9.70;1.90;;;15.70;82.50;;;;;;4938994;29;20166;-77
2022/05/05 09:32:35;;;;;;;6.28;2.15;;;15.70;82.80;;;;;;4939252;29;20213;-78
2022/05/05 09:35:06;;;;;;;8.23;2.20;;;15.60;78.90;;;;;;4939099;29;20166;-79
2022/05/05 09:37:31;;;;;;;3.95;1.90;;;15.60;84.60;;;;;;4937875;29;20174;-79
2022/05/05 09:39:59;;;;;;;7.25;2.08;;;15.70;83.90;;;;;;4938999;29;20171;-80
2022/05/05 09:42:39;;;;;;;5.70;2.00;;;15.70;84.50;;;;;;4938251;29;20213;-79
2022/05/05 09:45:12;;;;;;;9.20;2.33;;;15.70;83.90;;;;;;4938844;29;20252;-79
2022/05/05 09:47:39;;;;;;;4.22;1.90;;;15.70;84.20;;;;;;4938963;29;20170;-80
2022/05/05 09:50:05;;;;;;;7.25;2.03;;;15.90;87.70;;;;;;4938468;29;20182;-80
2022/05/05 09:58:26;;;;;;;3.80;1.83;;;16.50;85.30;;;;;;4898916;29;20198;-78
2022/05/05 10:01:04;;;;;;;4.80;1.50;;;16.70;85.40;;;;;;4898576;29;20540;-81
2022/05/05 10:04:00;;;;;;;7.30;2.00;;;16.80;83.40;;;;;;4910370;29;20195;-80
2022/05/05 10:06:34;;;;;;;4.55;1.40;;;16.80;78.00;;;;;;4919613;29;20191;-80
2022/05/05 10:09:05;;;;;;;7.32;1.60;;;16.90;81.20;;;;;;4919752;29;20185;-79
2022/05/05 10:11:32;;;;;;;3.75;1.27;;;17.10;81.70;;;;;;4919624;29;20603;-79
2022/05/05 10:14:00;;;;;;;8.23;2.30;;;17.00;76.60;;;;;;4935560;29;20190;-79
2022/05/05 10:16:30;;;;;;;7.32;1.70;;;17.10;83.70;;;;;;4936923;29;20245;-80
2022/05/05 10:18:56;;;;;;;3.95;1.10;;;17.10;84.00;;;;;;4927910;29;20226;-79
2022/05/05 10:21:44;;;;;;;3.75;1.30;;;17.30;84.10;;;;;;4920516;29;20301;-79
2022/05/05 10:24:16;;;;;;;6.82;1.88;;;17.40;81.10;;;;;;4919295;29;20634;-79
2022/05/05 10:26:47;;;;;;;7.28;1.70;;;17.50;77.80;;;;;;4919205;29;20200;-78
2022/05/05 10:29:31;;;;;;;5.57;1.48;;;17.50;82.20;;;;;;4918583;29;20201;-79
2022/05/05 10:32:07;;;;;;;2.97;1.25;;;17.50;78.30;;;;;;4923130;29;20200;-79
2022/05/05 10:34:33;;;;;;;4.60;1.40;;;17.40;75.00;;;;;;4935465;29;20193;-78
2022/05/05 10:37:04;;;;;;;4.65;1.05;;;17.40;79.80;;;;;;4938111;29;20213;-78
2022/05/05 10:39:59;;;;;;;7.03;1.73;;;17.50;77.70;;;;;;4937356;29;20178;-79
2022/05/05 10:42:30;;;;;;;5.93;1.50;;;17.40;76.90;;;;;;4937982;29;20515;-80
2022/05/05 10:45:06;;;;;;;4.05;1.40;;;17.50;76.90;;;;;;4937518;29;20201;-77
2022/05/05 10:47:51;;;;;;;2.80;1.00;;;17.30;78.40;;;;;;4937629;29;20173;-78
2022/05/05 10:50:43;;;;;;;4.00;1.25;;;17.50;75.90;;;;;;4936334;29;20185;-77
2022/05/05 10:53:30;;;;;;;2.88;1.10;;;17.50;78.90;;;;;;4920250;29;20610;-77
2022/05/05 10:55:57;;;;;;;4.65;1.25;;;17.70;77.20;;;;;;4904988;29;20234;-77
2022/05/05 10:59:02;;;;;;;7.15;1.65;;;17.70;78.20;;;;;;4918397;29;20175;-78
2022/05/05 11:01:31;;;;;;;2.42;1.20;;;17.70;77.20;;;;;;4928762;29;20280;-79
2022/05/05 11:04:15;;;;;;;5.22;1.50;;;17.90;75.80;;;;;;4936239;29;20211;-79
2022/05/05 11:06:42;;;;;;;4.38;1.17;;;17.90;77.10;;;;;;4936321;29;20178;-78
2022/05/05 11:09:09;;;;;;;5.82;1.40;;;17.90;75.80;;;;;;4937354;29;20645;-78
2022/05/05 11:11:44;;;;;;;3.00;1.27;;;18.00;78.00;;;;;;4937372;29;20188;-78
2022/05/05 11:23:08;;;;;;;2.75;1.27;;;18.40;76.10;;;;;;4937597;29;20213;-78
2022/05/05 11:25:35;;;;;;;4.10;1.35;;;18.30;78.40;;;;;;4937223;29;20213;-78
2022/05/05 11:28:01;;;;;;;3.50;1.30;;;18.30;79.20;;;;;;4934935;29;20292;-78
2022/05/05 11:30:27;;;;;;;5.53;1.45;;;18.40;78.80;;;;;;4918312;29;20209;-79
2022/05/05 11:32:53;;;;;;;2.97;1.35;;;18.50;80.70;;;;;;4929345;29;20185;-78
2022/05/05 11:35:22;;;;;;;4.80;1.40;;;18.70;75.60;;;;;;4936931;29;20201;-78
2022/05/05 11:37:48;;;;;;;2.40;1.00;;;18.80;76.80;;;;;;4918728;29;20190;-79
2022/05/05 11:40:14;;;;;;;4.90;1.10;;;18.90;76.20;;;;;;4918043;29;20211;-79
2022/05/05 11:44:14;;;;;;;3.75;0.90;;;18.90;79.70;;;;;;4933014;29;20221;-78
2022/05/05 11:45:29;;;;;;;3.15;1.10;;;19.00;79.80;;;;;;4937069;29;20220;-80
2022/05/05 11:47:56;;;;;;;2.60;0.90;;;19.30;78.50;;;;;;4936751;29;20517;-79
2022/05/05 11:50:22;;;;;;;1.80;1.10;;;19.50;80.10;;;;;;4935203;29;20174;-79
2022/05/05 11:52:48;;;;;;;3.47;1.40;;;19.60;81.30;;;;;;4932779;29;20294;-79
2022/05/05 11:55:19;;;;;;;1.98;1.10;;;19.70;79.30;;;;;;4937277;29;20298;-81
2022/05/05 11:57:47;;;;;;;4.35;1.02;;;19.70;72.80;;;;;;4935241;29;20200;-79
2022/05/05 12:02:59;;;;;;;2.90;1.05;;;19.70;73.60;;;;;;4933480;29;20197;-78
2022/05/05 12:05:25;;;;;;;2.25;0.73;;;19.50;71.70;;;;;;4932642;29;20524;-78
2022/05/05 12:07:52;;;;;;;2.17;0.98;;;19.40;72.70;;;;;;4938333;29;20190;-80
2022/05/05 12:10:19;;;;;;;2.53;0.80;;;19.40;72.40;;;;;;4943743;29;20303;-79
2022/05/05 12:12:47;;;;;;;2.75;0.95;;;19.40;74.70;;;;;;4952754;29;20433;-79
2022/05/05 12:15:16;;;;;;;2.08;0.93;;;19.50;73.00;;;;;;4939874;29;20325;-79
2022/05/05 12:17:47;;;;;;;2.15;0.77;;;19.70;71.90;;;;;;4933322;29;20192;-78
2022/05/05 12:20:16;;;;;;;1.85;0.70;;;19.90;68.40;;;;;;4939330;29;20159;-79
2022/05/05 12:22:44;;;;;;;3.60;1.10;;;19.90;69.10;;;;;;4939611;29;20213;-81
2022/05/05 12:25:16;;;;;;;2.65;1.10;;;19.90;72.00;;;;;;4939819;29;20244;-79
2022/05/05 12:27:42;;;;;;;2.45;1.10;;;20.00;69.30;;;;;;4939708;29;20555;-78
2022/05/05 12:30:09;;;;;;;3.90;1.17;;;20.00;73.90;;;;;;4940248;29;20201;-79
2022/05/05 12:32:35;;;;;;;1.75;0.80;;;20.20;71.80;;;;;;4938903;29;20531;-78
2022/05/05 12:35:10;;;;;;;2.25;0.95;;;20.10;68.90;;;;;;4939269;29;20170;-78
2022/05/05 12:37:36;;;;;;;3.00;1.15;;;20.10;70.90;;;;;;4938041;29;20700;-78
2022/05/05 12:40:07;;;;;;;1.73;0.90;;;20.20;76.40;;;;;;4939379;29;20186;-78
2022/05/05 12:42:48;;;;;;;3.28;0.90;;;20.40;76.80;;;;;;4939060;29;20205;-78
2022/05/05 12:45:20;;;;;;;3.00;0.90;;;20.50;74.10;;;;;;4932180;29;20182;-78
2022/05/05 12:47:49;;;;;;;4.95;1.20;;;20.70;74.60;;;;;;4920864;29;20171;-79
2022/05/05 12:50:27;;;;;;;8.75;1.30;;;20.80;73.10;;;;;;4933861;29;20190;-79
2022/05/05 13:01:06;;;;;;;1.75;0.60;;;21.10;70.70;;;;;;4939383;29;20226;-79
2022/05/05 13:03:32;;;;;;;2.67;0.82;;;21.10;71.40;;;;;;4939497;29;20580;-79
2022/05/05 13:05:58;;;;;;;1.33;0.75;;;21.20;66.10;;;;;;4938025;29;20569;-78
2022/05/05 13:08:24;;;;;;;2.90;0.90;;;21.00;67.40;;;;;;4939575;29;20611;-78
2022/05/05 13:10:50;;;;;;;1.25;0.73;;;21.00;66.00;;;;;;4938726;29;20186;-78
2022/05/05 13:13:15;;;;;;;2.90;0.80;;;20.90;64.90;;;;;;4938805;29;20218;-79
2022/05/05 13:15:42;;;;;;;3.00;1.00;;;20.90;65.80;;;;;;4939408;29;20320;-78
2022/05/05 13:18:08;;;;;;;1.38;0.73;;;20.90;66.10;;;;;;4939370;29;20195;-80
2022/05/05 13:20:34;;;;;;;1.65;0.88;;;20.80;66.30;;;;;;4938701;29;20177;-79
2022/05/05 13:23:00;;;;;;;1.70;0.85;;;21.00;64.40;;;;;;4939563;29;20182;-79
2022/05/05 13:25:27;;;;;;;1.80;0.70;;;20.70;61.60;;;;;;4939454;29;20189;-79
2022/05/05 13:27:53;;;;;;;1.25;0.60;;;20.60;62.70;;;;;;4939375;29;20178;-78
2022/05/05 13:30:19;;;;;;;3.75;0.90;;;20.40;62.00;;;;;;4939115;29;20672;-78
2022/05/05 13:32:44;;;;;;;1.35;0.70;;;20.40;65.60;;;;;;4938146;29;20190;-78
2022/05/05 13:35:10;;;;;;;0.85;0.60;;;20.40;62.60;;;;;;4938669;29;20185;-78
2022/05/05 13:37:37;;;;;;;3.47;0.80;;;20.20;63.30;;;;;;4938451;29;20653;-79
2022/05/05 13:40:06;;;;;;;2.58;0.60;;;19.90;63.30;;;;;;4937525;29;20186;-78
2022/05/05 13:42:33;;;;;;;2.50;0.85;;;19.80;64.10;;;;;;4937840;29;20208;-79